aviador You're here:

KMSN Decoded Metar

MADISON in WI, USA
Report Time2018-02-19 10:53:00
UTC Time2018-02-19 11:56:51
Flight Rules vfr VFR
Wind190° at 05 kt
W.Decomp.*RWY 21: 4.8 kt HW 1.5 kt LCW
RWY 18: 4.9 kt HW 1.1 kt RCW
RWY 14: 3.0 kt HW 4.0 kt RCW
W.Rank190° ranks 2
Current wind is below 190° avg. (8.4)
Visibility9999 m
Phenomena:N/A
Clouds:Overcast 060 Hf
Expected CloudBase > 800 ft AGL from Temp-Dew spread
Ceiling6,000 ft
Temp02°C (ISA -11)
Dew Point00°C (87% RH)
AAT-1.8°C
QNH1009 hPa
Density Alt-292 ft
Elevation856 ft
Report Wrong Elevation
Raw Report
METAR KMSN 191053Z AUTO 19005KT 10SM OVC060 02/00 A2981 RMK AO2 SLP102
T00220000=

Extra information for KMSN:More info

Metar Taf Metar & Taf Last 4 Metars F.Rules Stats Wind Profile Meteogram Temp Stats Airport Information Weather charts Add Link Nearby VenuesMetar ALERT Operation Metar Decoded Social comments

AIRNAV info for KMSN